Terminal Aerodrome Forecast
Issued by NWS Twin Cities, MN

Home | Current Version | Previous Version | Text Only | Print | Product List | Glossary Off
Versions: 1 2 3 4 5 6 7 8 9 10 11 12 13 14 15 16 17

000
FTUS43 KMPX 192339
TAFEAU
TAF
KEAU 192339Z 2000/2024 18004KT P6SM SKC
     FM201300 18007KT P6SM BKN070
     FM201800 22008KT P6SM BKN070 PROB30 2018/2022 -SHRA
     FM202300 27005KT P6SM SCT100=

USA.gov is the U.S. government's official web portal to all federal, state and local government web resources and services.